createdAt,value
2023-04-27T00:00:43.800Z,75.01
2023-04-27T00:01:43.851Z,75.01
2023-04-27T00:02:43.975Z,75.36
2023-04-27T00:03:43.862Z,74.91
2023-04-27T00:04:44.097Z,75.46
2023-04-27T00:05:43.902Z,74.84
2023-04-27T00:06:43.752Z,74.95
2023-04-27T00:07:43.730Z,74.74
2023-04-27T00:08:43.722Z,75.26
2023-04-27T00:09:43.701Z,74.71
2023-04-27T00:10:43.698Z,74.43
2023-04-27T00:11:43.690Z,74.84
2023-04-27T00:12:43.671Z,74.53
2023-04-27T00:13:43.684Z,74.81
2023-04-27T00:14:43.654Z,74.19
2023-04-27T00:15:43.633Z,74.74
2023-04-27T00:16:43.718Z,74.95
2023-04-27T00:17:43.670Z,75.46
2023-04-27T00:18:43.609Z,74.95
2023-04-27T00:19:43.599Z,74.22
2023-04-27T00:20:43.598Z,74.43
2023-04-27T00:21:43.581Z,74.95
2023-04-27T00:22:43.565Z,74.74
2023-04-27T00:23:43.557Z,74.98
2023-04-27T00:24:43.558Z,75.15
2023-04-27T00:25:43.541Z,75.15
2023-04-27T00:26:43.529Z,74.95
2023-04-27T00:27:43.520Z,75.36
2023-04-27T00:28:43.508Z,75.26
2023-04-27T00:29:43.494Z,75.15
2023-04-27T00:30:43.484Z,75.09
2023-04-27T00:31:43.518Z,75.26
2023-04-27T00:32:43.483Z,75.09
2023-04-27T00:33:43.456Z,75.09
2023-04-27T00:34:43.442Z,75.39
2023-04-27T00:35:43.426Z,75.81
2023-04-27T00:36:43.423Z,75.60
2023-04-27T00:37:43.417Z,76.84
2023-04-27T00:38:43.402Z,75.98
2023-04-27T00:39:43.393Z,76.29
2023-04-27T00:40:43.377Z,76.01
2023-04-27T00:41:43.363Z,75.70
2023-04-27T00:42:43.362Z,75.70
2023-04-27T00:43:43.355Z,75.70
2023-04-27T00:44:43.340Z,75.91
2023-04-27T00:45:43.354Z,75.60
2023-04-27T00:46:43.320Z,75.49
2023-04-27T00:47:43.328Z,75.70
2023-04-27T00:48:43.300Z,75.91
2023-04-27T00:49:43.288Z,76.12
2023-04-27T00:50:43.273Z,76.64
2023-04-27T00:51:43.260Z,76.53
2023-04-27T00:52:43.259Z,76.64
2023-04-27T00:53:43.247Z,76.43
2023-04-27T00:54:43.231Z,76.53
2023-04-27T00:55:43.221Z,76.43
2023-04-27T00:56:43.210Z,76.32
2023-04-27T00:57:43.205Z,75.81
2023-04-27T00:58:43.201Z,76.73
2023-04-27T00:59:43.184Z,76.53
2023-04-27T01:00:43.170Z,76.32
2023-04-27T01:01:43.230Z,76.01
2023-04-27T01:02:43.267Z,76.12
2023-04-27T01:03:43.262Z,75.49
2023-04-27T01:04:43.135Z,75.60
2023-04-27T01:05:43.116Z,75.60
2023-04-27T01:06:43.107Z,75.81
2023-04-27T01:07:43.097Z,75.60
2023-04-27T01:08:43.082Z,76.43
2023-04-27T01:09:43.071Z,76.32
2023-04-27T01:10:43.064Z,75.70
2023-04-27T01:11:43.063Z,76.12
2023-04-27T01:12:43.042Z,76.22
2023-04-27T01:13:43.038Z,76.01
2023-04-27T01:14:43.019Z,75.60
2023-04-27T01:15:43.012Z,76.32
2023-04-27T01:16:43.038Z,76.01
2023-04-27T01:17:43.039Z,76.01
2023-04-27T01:18:42.978Z,76.22
2023-04-27T01:19:42.969Z,75.91
2023-04-27T01:20:42.955Z,76.22
2023-04-27T01:21:42.952Z,76.32
2023-04-27T01:22:42.942Z,75.81
2023-04-27T01:23:42.932Z,77.77
2023-04-27T01:24:42.907Z,77.25
2023-04-27T01:25:42.910Z,77.04
2023-04-27T01:26:42.888Z,77.04
2023-04-27T01:27:42.881Z,76.98
2023-04-27T01:28:42.873Z,77.15
2023-04-27T01:29:42.861Z,77.04
2023-04-27T01:30:42.849Z,77.25
2023-04-27T01:31:42.950Z,77.77
2023-04-27T01:32:42.897Z,77.98
2023-04-27T01:33:42.828Z,78.08
2023-04-27T01:34:42.833Z,77.87
2023-04-27T01:35:42.791Z,77.81
2023-04-27T01:36:42.787Z,77.81
2023-04-27T01:37:42.775Z,77.98
2023-04-27T01:38:42.773Z,77.98
2023-04-27T01:39:42.758Z,78.08
2023-04-27T01:40:42.752Z,77.81
2023-04-27T01:41:42.736Z,77.98
2023-04-27T01:42:42.725Z,77.87
2023-04-27T01:43:42.718Z,78.63
2023-04-27T01:44:42.704Z,77.91
2023-04-27T01:45:42.692Z,78.11
2023-04-27T01:46:42.808Z,78.63
2023-04-27T01:47:42.693Z,78.08
2023-04-27T01:48:42.667Z,77.81
2023-04-27T01:49:42.651Z,77.60
2023-04-27T01:50:42.656Z,77.81
2023-04-27T01:51:42.627Z,78.22
2023-04-27T01:52:42.622Z,77.81
2023-04-27T01:53:42.627Z,78.11
2023-04-27T01:54:42.658Z,77.81
2023-04-27T01:55:42.658Z,77.81
2023-04-27T01:56:42.580Z,78.01
2023-04-27T01:57:42.577Z,77.46
2023-04-27T01:58:42.553Z,77.91
2023-04-27T01:59:42.562Z,77.50
2023-04-27T02:00:42.534Z,77.70
2023-04-27T02:01:42.602Z,78.32
2023-04-27T02:02:42.636Z,77.60
2023-04-27T02:03:42.642Z,77.70
2023-04-27T02:04:42.559Z,78.01
2023-04-27T02:05:42.483Z,77.81
2023-04-27T02:06:42.466Z,78.01
2023-04-27T02:07:42.462Z,77.98
2023-04-27T02:08:42.825Z,78.32
2023-04-27T02:09:42.442Z,78.84
2023-04-27T02:10:42.437Z,78.53
2023-04-27T02:11:42.421Z,78.01
2023-04-27T02:12:42.406Z,78.01
2023-04-27T02:13:42.401Z,78.11
2023-04-27T02:14:42.381Z,79.05
2023-04-27T02:15:42.394Z,78.94
2023-04-27T02:16:42.503Z,79.05
2023-04-27T02:17:42.377Z,78.01
2023-04-27T02:18:42.331Z,78.42
2023-04-27T02:19:42.326Z,79.15
2023-04-27T02:20:42.348Z,79.46
2023-04-27T02:21:42.325Z,79.15
2023-04-27T02:22:42.296Z,79.05
2023-04-27T02:23:42.284Z,78.77
2023-04-27T02:24:42.276Z,78.56
2023-04-27T02:25:42.302Z,79.36
2023-04-27T02:26:42.249Z,79.25
2023-04-27T02:27:42.240Z,79.15
2023-04-27T02:28:42.228Z,77.64
2023-04-27T02:29:42.225Z,78.88
2023-04-27T02:30:42.208Z,78.67
2023-04-27T02:31:42.231Z,78.67
2023-04-27T02:32:42.214Z,78.98
2023-04-27T02:33:42.176Z,78.77
2023-04-27T02:34:42.167Z,77.94
2023-04-27T02:35:42.155Z,77.94
2023-04-27T02:36:42.160Z,78.56
2023-04-27T02:37:42.135Z,78.11
2023-04-27T02:38:42.130Z,77.94
2023-04-27T02:39:42.111Z,78.25
2023-04-27T02:40:42.099Z,78.46
2023-04-27T02:41:42.110Z,78.46
2023-04-27T02:42:42.097Z,78.32
2023-04-27T02:43:42.069Z,78.25
2023-04-27T02:44:42.069Z,77.94
2023-04-27T02:45:42.045Z,77.94
2023-04-27T02:46:42.065Z,78.25
2023-04-27T02:47:42.052Z,78.36
2023-04-27T02:48:42.019Z,78.46
2023-04-27T02:49:42.005Z,78.05
2023-04-27T02:50:41.991Z,78.98
2023-04-27T02:51:41.977Z,78.88
2023-04-27T02:52:41.972Z,79.19
2023-04-27T02:53:41.961Z,77.94
2023-04-27T02:54:41.946Z,77.74
2023-04-27T02:55:41.931Z,78.05
2023-04-27T02:56:41.953Z,77.64
2023-04-27T02:57:41.912Z,78.77
2023-04-27T02:58:41.927Z,78.77
2023-04-27T02:59:41.906Z,79.08
2023-04-27T03:00:41.882Z,78.67
2023-04-27T03:01:41.953Z,78.77
2023-04-27T03:02:41.956Z,78.15
2023-04-27T03:03:41.998Z,78.88
2023-04-27T03:04:41.893Z,78.77
2023-04-27T03:05:41.837Z,78.36
2023-04-27T03:06:41.827Z,78.56
2023-04-27T03:07:41.816Z,78.15
2023-04-27T03:08:41.792Z,78.15
2023-04-27T03:09:41.814Z,78.29
2023-04-27T03:10:41.771Z,78.05
2023-04-27T03:11:41.908Z,77.56
2023-04-27T03:12:41.747Z,77.74
2023-04-27T03:13:41.741Z,77.84
2023-04-27T03:14:41.724Z,78.56
2023-04-27T03:15:41.712Z,78.05
2023-04-27T03:16:41.725Z,77.84
2023-04-27T03:17:41.742Z,77.64
2023-04-27T03:18:41.694Z,77.74
2023-04-27T03:19:41.669Z,77.94
2023-04-27T03:20:41.664Z,77.64
2023-04-27T03:21:41.654Z,77.94
2023-04-27T03:22:41.637Z,78.05
2023-04-27T03:23:41.624Z,78.56
2023-04-27T03:24:41.616Z,78.46
2023-04-27T03:25:41.604Z,78.56
2023-04-27T03:26:41.600Z,77.94
2023-04-27T03:27:41.582Z,79.39
2023-04-27T03:28:41.572Z,79.02
2023-04-27T03:29:41.563Z,79.43
2023-04-27T03:30:41.548Z,79.39
2023-04-27T03:31:41.556Z,79.63
2023-04-27T03:32:41.552Z,79.39
2023-04-27T03:33:41.523Z,79.33
2023-04-27T03:34:41.521Z,79.43
2023-04-27T03:35:41.493Z,79.43
2023-04-27T03:36:41.483Z,78.98
2023-04-27T03:37:41.477Z,78.98
2023-04-27T03:38:41.462Z,79.33
2023-04-27T03:39:41.452Z,79.33
2023-04-27T03:40:41.440Z,79.33
2023-04-27T03:41:41.433Z,79.63
2023-04-27T03:42:41.422Z,79.60
2023-04-27T03:43:41.407Z,79.91
2023-04-27T03:44:41.503Z,79.39
2023-04-27T03:45:41.418Z,79.91
2023-04-27T03:46:41.375Z,79.22
2023-04-27T03:47:41.431Z,79.60
2023-04-27T03:48:41.373Z,79.60
2023-04-27T03:49:41.341Z,79.91
2023-04-27T03:50:41.334Z,79.39
2023-04-27T03:51:41.320Z,79.80
2023-04-27T03:52:41.310Z,80.01
2023-04-27T03:53:41.312Z,79.19
2023-04-27T03:54:41.292Z,80.01
2023-04-27T03:55:41.277Z,79.80
2023-04-27T03:56:41.271Z,79.70
2023-04-27T03:57:41.256Z,79.19
2023-04-27T03:58:41.247Z,79.39
2023-04-27T03:59:41.238Z,80.32
2023-04-27T04:00:41.225Z,79.63
2023-04-27T04:01:41.238Z,79.60
2023-04-27T04:02:41.323Z,79.70
2023-04-27T04:03:41.360Z,79.80
2023-04-27T04:04:41.334Z,79.91
2023-04-27T04:05:41.171Z,79.63
2023-04-27T04:06:41.163Z,79.49
2023-04-27T04:07:41.147Z,79.91
2023-04-27T04:08:41.150Z,79.60
2023-04-27T04:09:41.127Z,78.98
2023-04-27T04:10:41.138Z,78.77
2023-04-27T04:11:41.107Z,79.08
2023-04-27T04:12:41.096Z,79.19
2023-04-27T04:13:41.092Z,79.49
2023-04-27T04:14:41.077Z,79.91
2023-04-27T04:15:41.125Z,80.01
2023-04-27T04:16:41.059Z,79.80
2023-04-27T04:17:41.101Z,80.01
2023-04-27T04:18:41.027Z,79.60
2023-04-27T04:19:41.024Z,79.80
2023-04-27T04:20:41.005Z,79.29
2023-04-27T04:21:40.996Z,79.60
2023-04-27T04:22:40.986Z,79.29
2023-04-27T04:23:41.029Z,78.77
2023-04-27T04:24:40.963Z,79.08
2023-04-27T04:25:40.951Z,79.39
2023-04-27T04:26:40.943Z,79.39
2023-04-27T04:27:40.942Z,79.39
2023-04-27T04:28:40.924Z,79.25
2023-04-27T04:29:40.907Z,79.49
2023-04-27T04:30:40.902Z,79.70
2023-04-27T04:31:40.922Z,79.49
2023-04-27T04:32:40.896Z,79.56
2023-04-27T04:33:40.864Z,79.36
2023-04-27T04:34:40.870Z,79.39
2023-04-27T04:35:40.843Z,79.56
2023-04-27T04:36:40.837Z,79.77
2023-04-27T04:37:40.823Z,77.91
2023-04-27T04:38:40.810Z,77.70
2023-04-27T04:39:40.801Z,78.74
2023-04-27T04:40:40.791Z,78.94
2023-04-27T04:41:40.781Z,78.74
2023-04-27T04:42:40.768Z,79.32
2023-04-27T04:43:40.754Z,78.63
2023-04-27T04:44:40.769Z,78.39
2023-04-27T04:45:40.736Z,78.39
2023-04-27T04:46:40.773Z,78.22
2023-04-27T04:47:40.814Z,78.18
2023-04-27T04:48:40.720Z,78.18
2023-04-27T04:49:40.697Z,77.98
2023-04-27T04:50:40.683Z,78.49
2023-04-27T04:51:40.673Z,77.77
2023-04-27T04:52:40.661Z,78.45
2023-04-27T04:53:40.652Z,77.84
2023-04-27T04:54:40.640Z,77.73
2023-04-27T04:55:40.630Z,77.84
2023-04-27T04:56:40.615Z,76.81
2023-04-27T04:57:40.628Z,77.28
2023-04-27T04:58:40.609Z,77.84
2023-04-27T04:59:40.599Z,77.08
2023-04-27T05:00:40.584Z,76.35
2023-04-27T05:01:40.586Z,76.29
2023-04-27T05:02:40.863Z,75.95
2023-04-27T05:03:40.723Z,76.15
2023-04-27T05:04:40.629Z,76.15
2023-04-27T05:05:40.525Z,75.32
2023-04-27T05:06:40.514Z,75.70
2023-04-27T05:07:40.505Z,75.60
2023-04-27T05:08:40.496Z,75.29
2023-04-27T05:09:40.489Z,75.22
2023-04-27T05:10:40.474Z,75.01
2023-04-27T05:11:40.461Z,75.74
2023-04-27T05:12:40.454Z,74.98
2023-04-27T05:13:40.448Z,75.53
2023-04-27T05:14:40.430Z,75.60
2023-04-27T05:15:40.474Z,74.88
2023-04-27T05:16:40.453Z,75.18
2023-04-27T05:17:40.407Z,74.88
2023-04-27T05:18:40.395Z,74.36
2023-04-27T05:19:40.383Z,74.46
2023-04-27T05:20:40.398Z,74.36
2023-04-27T05:21:40.359Z,74.36
2023-04-27T05:22:40.344Z,74.36
2023-04-27T05:23:40.359Z,74.26
2023-04-27T05:24:40.330Z,74.26
2023-04-27T05:25:40.319Z,73.64
2023-04-27T05:26:40.375Z,74.15
2023-04-27T05:27:40.296Z,73.40
2023-04-27T05:28:40.287Z,72.81
2023-04-27T05:29:40.279Z,73.91
2023-04-27T05:30:40.276Z,73.40
2023-04-27T05:31:40.305Z,72.16
2023-04-27T05:32:40.295Z,71.64
2023-04-27T05:33:40.249Z,72.37
2023-04-27T05:34:40.224Z,72.37
2023-04-27T05:35:40.219Z,72.54
2023-04-27T05:36:40.206Z,73.26
2023-04-27T05:37:40.193Z,71.30
2023-04-27T05:38:40.391Z,71.61
2023-04-27T05:39:40.180Z,70.89
2023-04-27T05:40:40.163Z,70.65
2023-04-27T05:41:40.256Z,70.96
2023-04-27T05:42:40.144Z,70.37
2023-04-27T05:43:40.146Z,69.96
2023-04-27T05:44:40.126Z,70.58
2023-04-27T05:45:40.144Z,71.06
2023-04-27T05:46:40.109Z,70.45
2023-04-27T05:47:40.112Z,69.55
2023-04-27T05:48:40.086Z,70.45
2023-04-27T05:49:40.076Z,70.55
2023-04-27T05:50:40.064Z,70.31
2023-04-27T05:51:40.061Z,70.00
2023-04-27T05:52:40.054Z,69.90
2023-04-27T05:53:40.040Z,67.10
2023-04-27T05:54:40.017Z,66.17
2023-04-27T05:55:40.018Z,65.73
2023-04-27T05:56:40.000Z,65.67
2023-04-27T05:57:40.482Z,62.61
2023-04-27T05:58:39.987Z,61.70
2023-04-27T05:59:39.975Z,59.47
2023-04-27T06:00:39.969Z,56.07
2023-04-27T06:01:39.970Z,55.87
2023-04-27T06:02:40.122Z,56.84
2023-04-27T06:03:40.201Z,56.07
2023-04-27T06:04:39.973Z,53.96
2023-04-27T06:05:39.970Z,51.20
2023-04-27T06:06:39.919Z,51.87
2023-04-27T06:07:39.974Z,51.01
2023-04-27T06:08:39.904Z,50.60
2023-04-27T06:09:39.892Z,49.16
2023-04-27T06:10:39.879Z,49.23
2023-04-27T06:11:39.870Z,48.93
2023-04-27T06:12:39.884Z,49.41
2023-04-27T06:13:39.859Z,48.76
2023-04-27T06:14:39.848Z,46.30
2023-04-27T06:15:39.885Z,46.28
2023-04-27T06:16:39.834Z,46.00
2023-04-27T06:17:39.857Z,46.69
2023-04-27T06:18:39.825Z,45.55
2023-04-27T06:19:39.810Z,44.74
2023-04-27T06:20:39.805Z,44.42
2023-04-27T06:21:39.790Z,44.70
2023-04-27T06:22:39.790Z,43.51
2023-04-27T06:23:39.783Z,43.32
2023-04-27T06:24:39.783Z,43.44
2023-04-27T06:25:40.352Z,44.50
2023-04-27T06:26:39.755Z,45.33
2023-04-27T06:27:39.756Z,44.52
2023-04-27T06:28:39.750Z,44.62
2023-04-27T06:29:39.743Z,46.22
2023-04-27T06:30:39.882Z,45.27
2023-04-27T06:31:39.891Z,43.51
2023-04-27T06:32:39.760Z,42.68
2023-04-27T06:33:39.722Z,42.15
2023-04-27T06:34:39.707Z,41.42
2023-04-27T06:35:39.720Z,41.22
2023-04-27T06:36:39.705Z,40.52
2023-04-27T06:37:39.699Z,41.12
2023-04-27T06:38:39.692Z,42.43
2023-04-27T06:39:39.682Z,41.49
2023-04-27T06:40:39.676Z,41.49
2023-04-27T06:41:39.673Z,42.21
2023-04-27T06:42:39.666Z,41.20
2023-04-27T06:43:39.670Z,40.55
2023-04-27T06:44:39.655Z,42.40
2023-04-27T06:45:39.648Z,42.17
2023-04-27T06:46:39.692Z,42.27
2023-04-27T06:47:39.722Z,43.67
2023-04-27T06:48:39.635Z,42.82
2023-04-27T06:49:39.628Z,43.08
2023-04-27T06:50:39.621Z,40.28
2023-04-27T06:51:39.626Z,39.91
2023-04-27T06:52:39.617Z,41.16
2023-04-27T06:53:39.616Z,41.72
2023-04-27T06:54:39.613Z,42.23
2023-04-27T06:55:41.682Z,43.55
2023-04-27T06:56:39.602Z,43.41
2023-04-27T06:57:39.591Z,42.90
2023-04-27T06:58:39.589Z,42.47
2023-04-27T06:59:39.578Z,41.26
2023-04-27T07:00:39.576Z,41.22
2023-04-27T07:01:39.614Z,41.30
2023-04-27T07:02:39.599Z,39.39
2023-04-27T07:03:39.682Z,41.10
2023-04-27T07:04:39.596Z,40.09
2023-04-27T07:05:39.555Z,39.73
2023-04-27T07:06:39.546Z,39.01
2023-04-27T07:07:39.540Z,37.16
2023-04-27T07:08:39.542Z,38.59
2023-04-27T07:09:39.537Z,36.99
2023-04-27T07:10:39.530Z,37.85
2023-04-27T07:11:39.524Z,39.50
2023-04-27T07:12:39.530Z,40.37
2023-04-27T07:13:39.522Z,40.45
2023-04-27T07:14:39.516Z,42.00
2023-04-27T07:15:39.511Z,43.98
2023-04-27T07:16:39.611Z,44.68
2023-04-27T07:17:39.532Z,45.34
2023-04-27T07:18:40.516Z,45.46
2023-04-27T07:19:39.693Z,45.97
2023-04-27T07:20:39.483Z,46.81
2023-04-27T07:21:39.486Z,46.30
2023-04-27T07:22:39.475Z,47.44
2023-04-27T07:23:39.495Z,46.40
2023-04-27T07:24:39.471Z,45.54
2023-04-27T07:25:39.461Z,45.28
2023-04-27T07:26:39.459Z,46.32
2023-04-27T07:27:39.452Z,46.42
2023-04-27T07:28:39.471Z,46.64
2023-04-27T07:29:39.451Z,46.75
2023-04-27T07:30:39.492Z,48.56
2023-04-27T07:31:39.466Z,47.16
2023-04-27T07:32:39.476Z,47.77
2023-04-27T07:33:39.425Z,47.24
2023-04-27T07:34:52.110Z,48.54
2023-04-27T07:35:39.439Z,48.13
2023-04-27T07:36:39.403Z,46.40
2023-04-27T07:37:39.400Z,48.05
2023-04-27T07:38:39.390Z,44.89
2023-04-27T07:39:39.388Z,46.28
2023-04-27T07:40:39.388Z,48.14
2023-04-27T07:41:39.379Z,46.94
2023-04-27T07:42:39.369Z,48.59
2023-04-27T07:43:39.362Z,48.92
2023-04-27T07:44:39.356Z,49.54
2023-04-27T07:45:39.387Z,51.98
2023-04-27T07:46:39.344Z,50.53
2023-04-27T07:47:39.384Z,49.87
2023-04-27T07:48:39.332Z,48.99
2023-04-27T07:49:39.326Z,46.60
2023-04-27T07:50:39.317Z,46.20
2023-04-27T07:51:39.313Z,46.22
2023-04-27T07:52:39.326Z,46.64
2023-04-27T07:53:39.301Z,46.32
2023-04-27T07:54:39.298Z,46.40
2023-04-27T07:55:39.290Z,45.01
2023-04-27T07:56:39.284Z,44.59
2023-04-27T07:57:39.293Z,42.66
2023-04-27T07:58:39.270Z,44.48
2023-04-27T07:59:39.262Z,44.20
2023-04-27T08:00:39.253Z,44.81
2023-04-27T08:01:39.291Z,45.11
2023-04-27T08:02:39.394Z,45.44
2023-04-27T08:03:39.428Z,45.99
2023-04-27T08:04:39.535Z,46.01
2023-04-27T08:05:39.492Z,46.75
2023-04-27T08:06:39.457Z,47.69
2023-04-27T08:07:42.706Z,47.28
2023-04-27T08:08:39.208Z,47.71
2023-04-27T08:09:39.220Z,48.65
2023-04-27T08:10:39.196Z,50.00
2023-04-27T08:11:39.192Z,49.98
2023-04-27T08:12:39.216Z,48.55
2023-04-27T08:13:39.185Z,47.63
2023-04-27T08:14:39.176Z,48.14
2023-04-27T08:15:39.172Z,48.55
2023-04-27T08:16:39.230Z,49.26
2023-04-27T08:17:39.190Z,48.85
2023-04-27T08:18:39.154Z,48.36
2023-04-27T08:19:39.145Z,47.67
2023-04-27T08:20:39.144Z,49.00
2023-04-27T08:21:39.124Z,47.32
2023-04-27T08:22:39.122Z,46.81
2023-04-27T08:23:39.114Z,46.47
2023-04-27T08:24:39.109Z,46.26
2023-04-27T08:25:39.105Z,47.12
2023-04-27T08:26:39.095Z,48.16
2023-04-27T08:27:39.086Z,49.71
2023-04-27T08:28:39.080Z,50.35
2023-04-27T08:29:39.072Z,50.15
2023-04-27T08:30:39.068Z,50.37
2023-04-27T08:31:39.130Z,51.12
2023-04-27T08:32:39.086Z,51.45
2023-04-27T08:33:39.047Z,51.95
2023-04-27T08:34:39.040Z,51.88
2023-04-27T08:35:39.053Z,51.90
2023-04-27T08:36:39.023Z,51.62
2023-04-27T08:37:39.016Z,51.62
2023-04-27T08:38:39.013Z,51.64
2023-04-27T08:39:39.007Z,52.26
2023-04-27T08:40:38.987Z,53.18
2023-04-27T08:41:38.994Z,52.34
2023-04-27T08:42:38.989Z,52.13
2023-04-27T08:43:38.971Z,52.13
2023-04-27T08:44:38.962Z,51.42
2023-04-27T08:45:38.957Z,51.82
2023-04-27T08:46:38.985Z,51.85
2023-04-27T08:47:43.189Z,52.03
2023-04-27T08:48:38.940Z,51.72
2023-04-27T08:49:38.942Z,51.82
2023-04-27T08:50:38.914Z,51.80
2023-04-27T08:51:38.912Z,51.18
2023-04-27T08:52:38.909Z,51.39
2023-04-27T08:53:38.889Z,51.47
2023-04-27T08:54:38.893Z,51.67
2023-04-27T08:55:38.878Z,50.45
2023-04-27T08:56:38.882Z,51.47
2023-04-27T08:57:38.861Z,50.12
2023-04-27T08:58:38.854Z,50.42
2023-04-27T08:59:38.845Z,50.63
2023-04-27T09:00:38.839Z,49.71
2023-04-27T09:01:38.876Z,49.60
2023-04-27T09:02:38.894Z,48.89
2023-04-27T09:03:38.925Z,48.68
2023-04-27T09:04:38.958Z,49.30
2023-04-27T09:05:44.125Z,50.45
2023-04-27T09:06:38.793Z,49.01
2023-04-27T09:07:38.790Z,49.52
2023-04-27T09:08:38.776Z,49.83
2023-04-27T09:09:38.771Z,50.24
2023-04-27T09:10:38.760Z,51.18
2023-04-27T09:11:38.756Z,51.31
2023-04-27T09:12:38.743Z,51.21
2023-04-27T09:13:38.744Z,52.75
2023-04-27T09:14:38.728Z,52.75
2023-04-27T09:15:38.716Z,53.44
2023-04-27T09:16:38.805Z,53.33
2023-04-27T09:17:38.779Z,52.42
2023-04-27T09:18:38.699Z,52.11
2023-04-27T09:19:38.689Z,52.13
2023-04-27T09:20:38.681Z,53.97
2023-04-27T09:21:38.672Z,54.05
2023-04-27T09:22:38.665Z,52.31
2023-04-27T09:23:38.656Z,52.62
2023-04-27T09:24:38.653Z,53.23
2023-04-27T09:25:38.645Z,51.29
2023-04-27T09:26:38.640Z,51.67
2023-04-27T09:27:38.626Z,51.45
2023-04-27T09:28:38.615Z,51.54
2023-04-27T09:29:38.714Z,50.42
2023-04-27T09:30:38.607Z,49.38
2023-04-27T09:31:38.607Z,49.46
2023-04-27T09:32:38.600Z,47.80
2023-04-27T09:33:38.581Z,48.43
2023-04-27T09:34:38.570Z,47.52
2023-04-27T09:35:38.563Z,47.74
2023-04-27T09:36:38.557Z,48.38
2023-04-27T09:37:38.557Z,48.71
2023-04-27T09:38:38.570Z,50.26
2023-04-27T09:39:38.568Z,51.42
2023-04-27T09:40:38.564Z,51.85
2023-04-27T09:41:38.523Z,53.26
2023-04-27T09:42:38.551Z,53.59
2023-04-27T09:43:38.561Z,53.49
2023-04-27T09:44:38.507Z,53.36
2023-04-27T09:45:38.508Z,53.05
2023-04-27T09:46:38.476Z,52.23
2023-04-27T09:47:38.497Z,52.34
2023-04-27T09:48:38.460Z,52.64
2023-04-27T09:49:38.450Z,52.64
2023-04-27T09:50:38.450Z,54.87
2023-04-27T09:51:38.435Z,52.29
2023-04-27T09:52:38.428Z,51.86
2023-04-27T09:53:38.422Z,52.14
2023-04-27T09:54:38.406Z,50.89
2023-04-27T09:55:38.401Z,48.64
2023-04-27T09:56:38.416Z,49.84
2023-04-27T09:57:38.387Z,50.58
2023-04-27T09:58:38.381Z,49.21
2023-04-27T09:59:38.373Z,48.90
2023-04-27T10:00:38.361Z,46.75
2023-04-27T10:01:38.368Z,45.94
2023-04-27T10:02:50.290Z,47.57
2023-04-27T10:03:38.393Z,47.88
2023-04-27T10:04:38.394Z,46.53
2023-04-27T10:05:38.324Z,44.98
2023-04-27T10:06:38.318Z,45.79
2023-04-27T10:07:38.308Z,46.92
2023-04-27T10:08:38.307Z,47.81
2023-04-27T10:09:38.292Z,45.59
2023-04-27T10:10:38.288Z,46.00
2023-04-27T10:11:38.281Z,46.81
2023-04-27T10:12:38.271Z,46.83
2023-04-27T10:13:38.292Z,45.51
2023-04-27T10:14:38.258Z,46.55
2023-04-27T10:15:38.251Z,44.73
2023-04-27T10:16:38.266Z,44.94
2023-04-27T10:17:38.254Z,44.63
2023-04-27T10:18:38.232Z,46.16
2023-04-27T10:19:38.228Z,46.37
2023-04-27T10:20:38.227Z,46.90
2023-04-27T10:21:38.205Z,47.52
2023-04-27T10:22:38.199Z,48.23
2023-04-27T10:23:38.193Z,48.21
2023-04-27T10:24:38.194Z,47.00
2023-04-27T10:25:38.180Z,49.17
2023-04-27T10:26:39.952Z,48.56
2023-04-27T10:27:38.168Z,48.97
2023-04-27T10:28:38.157Z,49.68
2023-04-27T10:29:38.149Z,48.54
2023-04-27T10:30:38.221Z,48.15
2023-04-27T10:31:38.135Z,47.31
2023-04-27T10:32:38.176Z,48.54
2023-04-27T10:33:38.126Z,48.82
2023-04-27T10:34:38.116Z,47.69
2023-04-27T10:35:38.112Z,47.69
2023-04-27T10:36:38.107Z,46.47
2023-04-27T10:37:38.087Z,46.45
2023-04-27T10:38:38.086Z,45.25
2023-04-27T10:39:47.806Z,44.73
2023-04-27T10:40:38.120Z,44.71
2023-04-27T10:41:38.064Z,44.51
2023-04-27T10:42:38.062Z,45.02
2023-04-27T10:43:38.050Z,43.41
2023-04-27T10:44:38.043Z,43.41
2023-04-27T10:45:38.033Z,44.94
2023-04-27T10:46:38.127Z,45.14
2023-04-27T10:47:38.165Z,45.45
2023-04-27T10:48:38.012Z,45.67
2023-04-27T10:49:38.007Z,45.67
2023-04-27T10:50:37.995Z,45.49
2023-04-27T10:51:37.996Z,45.29
2023-04-27T10:52:37.985Z,45.70
2023-04-27T10:53:37.979Z,45.51
2023-04-27T10:54:37.971Z,45.29
2023-04-27T10:55:37.963Z,45.29
2023-04-27T10:56:37.955Z,44.24
2023-04-27T10:57:37.943Z,43.61
2023-04-27T10:58:48.313Z,42.79
2023-04-27T10:59:37.932Z,43.91
2023-04-27T11:00:37.936Z,43.59
2023-04-27T11:01:37.956Z,42.88
2023-04-27T11:02:38.031Z,43.69
2023-04-27T11:03:38.063Z,44.00
2023-04-27T11:04:37.942Z,43.79
2023-04-27T11:05:37.893Z,43.51
2023-04-27T11:06:37.878Z,43.69
2023-04-27T11:07:37.872Z,43.18
2023-04-27T11:08:37.874Z,43.59
2023-04-27T11:09:37.855Z,41.94
2023-04-27T11:10:37.877Z,44.26
2023-04-27T11:11:37.860Z,42.83
2023-04-27T11:12:37.836Z,43.94
2023-04-27T11:13:37.827Z,44.22
2023-04-27T11:14:37.821Z,42.27
2023-04-27T11:15:37.825Z,40.12
2023-04-27T11:16:37.945Z,42.88
2023-04-27T11:17:37.806Z,39.13
2023-04-27T11:18:37.795Z,39.87
2023-04-27T11:19:37.785Z,40.90
2023-04-27T11:20:37.785Z,41.51
2023-04-27T11:21:37.769Z,42.22
2023-04-27T11:22:37.764Z,43.44
2023-04-27T11:23:37.756Z,44.55
2023-04-27T11:24:37.751Z,43.43
2023-04-27T11:25:37.767Z,42.47
2023-04-27T11:26:37.748Z,42.88
2023-04-27T11:27:37.744Z,41.66
2023-04-27T11:28:37.731Z,38.70
2023-04-27T11:29:37.724Z,40.33
2023-04-27T11:30:37.712Z,40.52
2023-04-27T11:31:37.738Z,38.78
2023-04-27T11:32:37.701Z,39.01
2023-04-27T11:33:37.687Z,39.53
2023-04-27T11:34:37.680Z,42.08
2023-04-27T11:35:37.691Z,43.43
2023-04-27T11:36:37.668Z,41.19
2023-04-27T11:37:37.675Z,41.78
2023-04-27T11:38:37.746Z,40.45
2023-04-27T11:39:37.655Z,41.78
2023-04-27T11:40:37.645Z,42.29
2023-04-27T11:41:37.637Z,43.61
2023-04-27T11:42:37.638Z,39.94
2023-04-27T11:43:37.625Z,42.08
2023-04-27T11:44:37.620Z,41.27
2023-04-27T11:45:37.628Z,42.29
2023-04-27T11:46:37.622Z,43.30
2023-04-27T11:47:37.677Z,41.98
2023-04-27T11:48:37.602Z,44.63
2023-04-27T11:49:37.597Z,42.80
2023-04-27T11:50:37.573Z,42.22
2023-04-27T11:51:37.563Z,43.02
2023-04-27T11:52:37.568Z,43.44
2023-04-27T11:53:37.552Z,43.16
2023-04-27T11:54:37.547Z,43.18
2023-04-27T11:55:37.537Z,43.82
2023-04-27T11:56:37.532Z,45.47
2023-04-27T11:57:37.527Z,44.43
2023-04-27T11:58:37.517Z,45.67
2023-04-27T11:59:37.509Z,45.47
2023-04-27T12:00:37.509Z,44.24
2023-04-27T12:01:38.488Z,45.18
2023-04-27T12:02:37.671Z,46.41
2023-04-27T12:03:37.691Z,45.18
2023-04-27T12:04:37.768Z,45.82
2023-04-27T12:05:37.501Z,46.94
2023-04-27T12:06:37.563Z,46.12
2023-04-27T12:07:37.455Z,48.27
2023-04-27T12:08:37.446Z,47.66
2023-04-27T12:09:37.437Z,47.97
2023-04-27T12:10:37.428Z,48.58
2023-04-27T12:11:37.421Z,47.76
2023-04-27T12:12:37.414Z,48.56
2023-04-27T12:13:37.405Z,47.44
2023-04-27T12:14:37.398Z,48.43
2023-04-27T12:15:37.391Z,46.59
2023-04-27T12:16:37.422Z,45.98
2023-04-27T12:17:37.422Z,45.78
2023-04-27T12:18:37.367Z,46.88
2023-04-27T12:19:37.376Z,46.26
2023-04-27T12:20:37.355Z,45.73
2023-04-27T12:21:37.344Z,46.86
2023-04-27T12:22:37.348Z,46.63
2023-04-27T12:23:37.340Z,46.00
2023-04-27T12:24:37.331Z,45.28
2023-04-27T12:25:37.314Z,44.78
2023-04-27T12:26:37.323Z,43.53
2023-04-27T12:27:37.301Z,45.16
2023-04-27T12:28:37.305Z,44.53
2023-04-27T12:29:37.283Z,45.36
2023-04-27T12:30:37.369Z,43.85
2023-04-27T12:31:37.357Z,45.06
2023-04-27T12:32:37.287Z,43.75
2023-04-27T12:33:37.252Z,41.61
2023-04-27T12:34:37.248Z,41.69
2023-04-27T12:35:37.263Z,41.39
2023-04-27T12:36:37.234Z,39.96
2023-04-27T12:37:37.225Z,40.78
2023-04-27T12:38:37.240Z,40.96
2023-04-27T12:39:37.214Z,41.47
2023-04-27T12:40:37.216Z,41.35
2023-04-27T12:41:37.202Z,40.43
2023-04-27T12:42:37.194Z,41.75
2023-04-27T12:43:37.182Z,41.74
2023-04-27T12:44:37.190Z,40.39
2023-04-27T12:45:37.170Z,42.33
2023-04-27T12:46:37.195Z,40.88
2023-04-27T12:48:37.189Z,39.64
2023-04-27T12:49:37.150Z,38.63
2023-04-27T12:50:37.132Z,39.53
2023-04-27T12:51:37.131Z,40.84
2023-04-27T12:52:37.124Z,36.49
2023-04-27T12:53:37.119Z,37.93